sensor_id;sensor_type;location;lat;lon;timestamp;P1;durP1;ratioP1;P2;durP2;ratioP2
64598;SDS011;51008;51.504;11.548;2023-09-07T00:04:55;13.98;;;6.88;;
64598;SDS011;51008;51.504;11.548;2023-09-07T00:09:56;12.32;;;7.47;;
64598;SDS011;51008;51.504;11.548;2023-09-07T00:14:57;13.73;;;7.50;;
64598;SDS011;51008;51.504;11.548;2023-09-07T00:19:59;13.45;;;7.32;;
64598;SDS011;51008;51.504;11.548;2023-09-07T00:25:00;15.60;;;7.30;;
64598;SDS011;51008;51.504;11.548;2023-09-07T00:30:01;10.65;;;6.72;;
64598;SDS011;51008;51.504;11.548;2023-09-07T00:35:03;12.55;;;7.93;;
64598;SDS011;51008;51.504;11.548;2023-09-07T00:40:05;10.15;;;7.20;;
64598;SDS011;51008;51.504;11.548;2023-09-07T00:45:07;13.27;;;7.33;;
64598;SDS011;51008;51.504;11.548;2023-09-07T00:50:09;12.98;;;7.47;;
64598;SDS011;51008;51.504;11.548;2023-09-07T00:55:10;14.27;;;7.53;;
64598;SDS011;51008;51.504;11.548;2023-09-07T01:00:13;14.43;;;7.95;;
64598;SDS011;51008;51.504;11.548;2023-09-07T01:05:14;16.00;;;7.70;;
64598;SDS011;51008;51.504;11.548;2023-09-07T01:10:15;14.00;;;7.95;;
64598;SDS011;51008;51.504;11.548;2023-09-07T01:15:17;13.27;;;7.93;;
64598;SDS011;51008;51.504;11.548;2023-09-07T01:20:18;13.48;;;7.78;;
64598;SDS011;51008;51.504;11.548;2023-09-07T01:25:20;15.95;;;8.75;;
64598;SDS011;51008;51.504;11.548;2023-09-07T01:30:21;15.45;;;8.48;;
64598;SDS011;51008;51.504;11.548;2023-09-07T01:35:23;14.98;;;8.27;;
64598;SDS011;51008;51.504;11.548;2023-09-07T01:40:25;13.95;;;7.97;;
64598;SDS011;51008;51.504;11.548;2023-09-07T01:45:26;12.65;;;7.45;;
64598;SDS011;51008;51.504;11.548;2023-09-07T01:50:27;22.55;;;8.05;;
64598;SDS011;51008;51.504;11.548;2023-09-07T01:55:28;13.25;;;8.50;;
64598;SDS011;51008;51.504;11.548;2023-09-07T02:00:30;15.90;;;9.05;;
64598;SDS011;51008;51.504;11.548;2023-09-07T02:05:31;17.80;;;8.98;;
64598;SDS011;51008;51.504;11.548;2023-09-07T02:10:33;13.35;;;8.27;;
64598;SDS011;51008;51.504;11.548;2023-09-07T02:15:37;15.10;;;7.60;;
64598;SDS011;51008;51.504;11.548;2023-09-07T02:20:38;14.90;;;8.38;;
64598;SDS011;51008;51.504;11.548;2023-09-07T02:25:40;16.17;;;8.30;;
64598;SDS011;51008;51.504;11.548;2023-09-07T02:30:41;15.90;;;8.10;;
64598;SDS011;51008;51.504;11.548;2023-09-07T02:35:42;13.15;;;7.78;;
64598;SDS011;51008;51.504;11.548;2023-09-07T02:40:43;15.10;;;8.55;;
64598;SDS011;51008;51.504;11.548;2023-09-07T02:45:44;14.57;;;8.68;;
64598;SDS011;51008;51.504;11.548;2023-09-07T02:50:47;13.57;;;8.02;;
64598;SDS011;51008;51.504;11.548;2023-09-07T02:55:49;15.32;;;8.57;;
64598;SDS011;51008;51.504;11.548;2023-09-07T03:00:50;15.55;;;8.82;;
64598;SDS011;51008;51.504;11.548;2023-09-07T03:05:54;13.77;;;9.25;;
64598;SDS011;51008;51.504;11.548;2023-09-07T03:10:56;13.05;;;9.45;;
64598;SDS011;51008;51.504;11.548;2023-09-07T03:15:57;15.27;;;9.38;;
64598;SDS011;51008;51.504;11.548;2023-09-07T03:21:00;15.55;;;9.13;;
64598;SDS011;51008;51.504;11.548;2023-09-07T03:26:03;16.13;;;9.80;;
64598;SDS011;51008;51.504;11.548;2023-09-07T03:31:04;15.27;;;9.07;;
64598;SDS011;51008;51.504;11.548;2023-09-07T03:36:06;14.60;;;9.15;;
64598;SDS011;51008;51.504;11.548;2023-09-07T03:41:07;13.95;;;9.43;;
64598;SDS011;51008;51.504;11.548;2023-09-07T03:46:08;18.65;;;11.18;;
64598;SDS011;51008;51.504;11.548;2023-09-07T03:51:11;18.85;;;10.55;;
64598;SDS011;51008;51.504;11.548;2023-09-07T03:56:12;16.45;;;10.25;;
64598;SDS011;51008;51.504;11.548;2023-09-07T04:01:13;16.25;;;11.05;;
64598;SDS011;51008;51.504;11.548;2023-09-07T04:06:15;18.10;;;10.32;;
64598;SDS011;51008;51.504;11.548;2023-09-07T04:11:15;15.98;;;10.55;;
64598;SDS011;51008;51.504;11.548;2023-09-07T04:16:17;22.30;;;10.57;;
64598;SDS011;51008;51.504;11.548;2023-09-07T04:21:18;18.27;;;11.55;;
64598;SDS011;51008;51.504;11.548;2023-09-07T04:26:19;22.33;;;12.73;;
64598;SDS011;51008;51.504;11.548;2023-09-07T04:31:20;18.13;;;11.93;;
64598;SDS011;51008;51.504;11.548;2023-09-07T04:36:21;22.83;;;12.18;;
64598;SDS011;51008;51.504;11.548;2023-09-07T04:41:22;21.05;;;11.88;;
64598;SDS011;51008;51.504;11.548;2023-09-07T04:46:23;19.27;;;11.15;;
64598;SDS011;51008;51.504;11.548;2023-09-07T04:51:25;22.20;;;12.02;;
64598;SDS011;51008;51.504;11.548;2023-09-07T04:56:26;17.02;;;10.68;;
64598;SDS011;51008;51.504;11.548;2023-09-07T05:01:27;20.02;;;11.27;;
64598;SDS011;51008;51.504;11.548;2023-09-07T05:06:29;22.45;;;12.48;;
64598;SDS011;51008;51.504;11.548;2023-09-07T05:11:31;18.25;;;11.65;;
64598;SDS011;51008;51.504;11.548;2023-09-07T05:16:32;20.77;;;12.50;;
64598;SDS011;51008;51.504;11.548;2023-09-07T05:21:33;19.02;;;13.20;;
64598;SDS011;51008;51.504;11.548;2023-09-07T05:26:35;25.73;;;13.80;;
64598;SDS011;51008;51.504;11.548;2023-09-07T05:31:36;27.27;;;14.82;;
64598;SDS011;51008;51.504;11.548;2023-09-07T05:36:37;24.85;;;14.52;;
64598;SDS011;51008;51.504;11.548;2023-09-07T05:41:38;26.60;;;15.00;;
64598;SDS011;51008;51.504;11.548;2023-09-07T05:46:39;29.00;;;14.80;;
64598;SDS011;51008;51.504;11.548;2023-09-07T05:51:41;27.45;;;15.77;;
64598;SDS011;51008;51.504;11.548;2023-09-07T05:56:42;26.60;;;15.73;;
64598;SDS011;51008;51.504;11.548;2023-09-07T06:01:43;25.20;;;15.50;;
64598;SDS011;51008;51.504;11.548;2023-09-07T06:06:44;27.80;;;16.00;;
64598;SDS011;51008;51.504;11.548;2023-09-07T06:11:45;23.33;;;15.85;;
64598;SDS011;51008;51.504;11.548;2023-09-07T06:16:46;24.73;;;16.05;;
64598;SDS011;51008;51.504;11.548;2023-09-07T06:21:47;23.50;;;17.35;;
64598;SDS011;51008;51.504;11.548;2023-09-07T06:26:49;25.40;;;15.80;;
64598;SDS011;51008;51.504;11.548;2023-09-07T06:31:51;23.58;;;15.93;;
64598;SDS011;51008;51.504;11.548;2023-09-07T06:36:52;23.15;;;14.65;;
64598;SDS011;51008;51.504;11.548;2023-09-07T06:41:55;21.33;;;13.40;;
64598;SDS011;51008;51.504;11.548;2023-09-07T06:46:59;24.27;;;16.05;;
64598;SDS011;51008;51.504;11.548;2023-09-07T06:52:01;23.73;;;14.95;;
64598;SDS011;51008;51.504;11.548;2023-09-07T06:57:02;29.63;;;15.73;;
64598;SDS011;51008;51.504;11.548;2023-09-07T07:02:03;23.30;;;15.45;;
64598;SDS011;51008;51.504;11.548;2023-09-07T07:07:04;25.92;;;17.10;;
64598;SDS011;51008;51.504;11.548;2023-09-07T07:12:05;25.75;;;17.95;;
64598;SDS011;51008;51.504;11.548;2023-09-07T07:17:07;25.42;;;16.38;;
64598;SDS011;51008;51.504;11.548;2023-09-07T07:22:09;23.45;;;15.80;;
64598;SDS011;51008;51.504;11.548;2023-09-07T07:27:11;22.00;;;15.73;;
64598;SDS011;51008;51.504;11.548;2023-09-07T07:32:12;24.98;;;16.75;;
64598;SDS011;51008;51.504;11.548;2023-09-07T07:37:13;29.48;;;18.27;;
64598;SDS011;51008;51.504;11.548;2023-09-07T07:42:14;23.80;;;15.43;;
64598;SDS011;51008;51.504;11.548;2023-09-07T07:47:16;22.10;;;16.65;;
64598;SDS011;51008;51.504;11.548;2023-09-07T07:52:18;23.48;;;17.38;;
64598;SDS011;51008;51.504;11.548;2023-09-07T07:57:19;24.33;;;16.63;;
64598;SDS011;51008;51.504;11.548;2023-09-07T08:02:20;23.58;;;17.33;;
64598;SDS011;51008;51.504;11.548;2023-09-07T08:07:21;21.65;;;16.17;;
64598;SDS011;51008;51.504;11.548;2023-09-07T08:12:22;25.23;;;16.52;;
64598;SDS011;51008;51.504;11.548;2023-09-07T08:17:24;21.25;;;15.38;;
64598;SDS011;51008;51.504;11.548;2023-09-07T08:22:25;21.45;;;16.50;;
64598;SDS011;51008;51.504;11.548;2023-09-07T08:27:26;25.35;;;16.20;;
64598;SDS011;51008;51.504;11.548;2023-09-07T08:32:29;22.75;;;16.17;;
64598;SDS011;51008;51.504;11.548;2023-09-07T08:37:30;21.88;;;14.90;;
64598;SDS011;51008;51.504;11.548;2023-09-07T08:42:31;21.50;;;14.55;;
64598;SDS011;51008;51.504;11.548;2023-09-07T08:47:33;22.48;;;11.57;;
64598;SDS011;51008;51.504;11.548;2023-09-07T08:52:35;17.92;;;12.00;;
64598;SDS011;51008;51.504;11.548;2023-09-07T08:57:36;20.13;;;13.27;;
64598;SDS011;51008;51.504;11.548;2023-09-07T09:02:37;17.52;;;10.25;;
64598;SDS011;51008;51.504;11.548;2023-09-07T09:07:38;18.35;;;12.40;;
64598;SDS011;51008;51.504;11.548;2023-09-07T09:12:45;12.95;;;9.63;;
64598;SDS011;51008;51.504;11.548;2023-09-07T09:17:47;14.95;;;9.80;;
64598;SDS011;51008;51.504;11.548;2023-09-07T09:22:49;18.65;;;10.45;;
64598;SDS011;51008;51.504;11.548;2023-09-07T09:27:53;14.82;;;8.73;;
64598;SDS011;51008;51.504;11.548;2023-09-07T09:32:54;17.63;;;9.55;;
64598;SDS011;51008;51.504;11.548;2023-09-07T09:37:55;20.48;;;9.55;;
64598;SDS011;51008;51.504;11.548;2023-09-07T09:43:02;20.23;;;10.80;;
64598;SDS011;51008;51.504;11.548;2023-09-07T09:48:03;15.98;;;9.20;;
64598;SDS011;51008;51.504;11.548;2023-09-07T09:53:06;18.00;;;10.07;;
64598;SDS011;51008;51.504;11.548;2023-09-07T09:58:07;15.52;;;8.75;;
64598;SDS011;51008;51.504;11.548;2023-09-07T10:03:08;15.57;;;9.20;;
64598;SDS011;51008;51.504;11.548;2023-09-07T10:08:14;13.18;;;8.65;;
64598;SDS011;51008;51.504;11.548;2023-09-07T10:13:16;12.88;;;9.00;;
64598;SDS011;51008;51.504;11.548;2023-09-07T10:18:32;14.75;;;8.63;;
64598;SDS011;51008;51.504;11.548;2023-09-07T10:23:35;16.63;;;9.02;;
64598;SDS011;51008;51.504;11.548;2023-09-07T10:28:41;13.10;;;8.75;;
64598;SDS011;51008;51.504;11.548;2023-09-07T10:33:43;14.63;;;8.20;;
64598;SDS011;51008;51.504;11.548;2023-09-07T10:38:45;13.43;;;8.27;;
64598;SDS011;51008;51.504;11.548;2023-09-07T10:43:47;14.80;;;7.30;;
64598;SDS011;51008;51.504;11.548;2023-09-07T10:48:50;13.43;;;8.27;;
64598;SDS011;51008;51.504;11.548;2023-09-07T10:53:52;10.63;;;7.50;;
64598;SDS011;51008;51.504;11.548;2023-09-07T10:58:53;13.90;;;7.32;;
64598;SDS011;51008;51.504;11.548;2023-09-07T11:08:56;15.52;;;6.85;;
64598;SDS011;51008;51.504;11.548;2023-09-07T11:14:01;10.25;;;6.13;;
64598;SDS011;51008;51.504;11.548;2023-09-07T11:19:04;10.70;;;6.65;;
64598;SDS011;51008;51.504;11.548;2023-09-07T11:24:05;11.32;;;6.72;;
64598;SDS011;51008;51.504;11.548;2023-09-07T11:29:06;12.40;;;6.87;;
64598;SDS011;51008;51.504;11.548;2023-09-07T11:34:11;10.45;;;6.22;;
64598;SDS011;51008;51.504;11.548;2023-09-07T11:39:13;9.82;;;6.60;;
64598;SDS011;51008;51.504;11.548;2023-09-07T11:44:14;11.73;;;6.25;;
64598;SDS011;51008;51.504;11.548;2023-09-07T11:49:15;16.17;;;6.07;;
64598;SDS011;51008;51.504;11.548;2023-09-07T11:54:16;10.32;;;5.65;;
64598;SDS011;51008;51.504;11.548;2023-09-07T11:59:17;10.57;;;6.03;;
64598;SDS011;51008;51.504;11.548;2023-09-07T12:04:18;9.73;;;5.70;;
64598;SDS011;51008;51.504;11.548;2023-09-07T12:09:19;8.68;;;5.50;;
64598;SDS011;51008;51.504;11.548;2023-09-07T12:14:20;12.75;;;5.65;;
64598;SDS011;51008;51.504;11.548;2023-09-07T12:19:24;9.90;;;6.00;;
64598;SDS011;51008;51.504;11.548;2023-09-07T12:24:25;16.13;;;6.50;;
64598;SDS011;51008;51.504;11.548;2023-09-07T12:29:26;13.30;;;5.90;;
64598;SDS011;51008;51.504;11.548;2023-09-07T12:34:26;13.33;;;5.90;;
64598;SDS011;51008;51.504;11.548;2023-09-07T12:39:27;11.18;;;5.70;;
64598;SDS011;51008;51.504;11.548;2023-09-07T12:44:28;10.90;;;5.63;;
64598;SDS011;51008;51.504;11.548;2023-09-07T12:49:29;8.70;;;5.63;;
64598;SDS011;51008;51.504;11.548;2023-09-07T12:54:30;6.67;;;5.20;;
64598;SDS011;51008;51.504;11.548;2023-09-07T12:59:31;18.30;;;5.77;;
64598;SDS011;51008;51.504;11.548;2023-09-07T13:04:32;8.63;;;5.57;;
64598;SDS011;51008;51.504;11.548;2023-09-07T13:09:33;13.43;;;6.20;;
64598;SDS011;51008;51.504;11.548;2023-09-07T13:14:34;8.43;;;5.28;;
64598;SDS011;51008;51.504;11.548;2023-09-07T13:19:35;8.00;;;5.30;;
64598;SDS011;51008;51.504;11.548;2023-09-07T13:24:36;12.15;;;5.32;;
64598;SDS011;51008;51.504;11.548;2023-09-07T13:29:37;9.60;;;5.57;;
64598;SDS011;51008;51.504;11.548;2023-09-07T13:34:39;11.57;;;5.47;;
64598;SDS011;51008;51.504;11.548;2023-09-07T13:39:40;8.00;;;5.07;;
64598;SDS011;51008;51.504;11.548;2023-09-07T13:44:41;12.03;;;5.77;;
64598;SDS011;51008;51.504;11.548;2023-09-07T13:49:42;7.13;;;5.40;;
64598;SDS011;51008;51.504;11.548;2023-09-07T13:54:43;9.53;;;4.97;;
64598;SDS011;51008;51.504;11.548;2023-09-07T13:59:43;11.40;;;5.33;;
64598;SDS011;51008;51.504;11.548;2023-09-07T14:04:44;7.70;;;4.75;;
64598;SDS011;51008;51.504;11.548;2023-09-07T14:09:45;8.48;;;5.18;;
64598;SDS011;51008;51.504;11.548;2023-09-07T14:14:46;11.53;;;5.83;;
64598;SDS011;51008;51.504;11.548;2023-09-07T14:19:48;9.03;;;5.40;;
64598;SDS011;51008;51.504;11.548;2023-09-07T14:24:49;12.43;;;5.35;;
64598;SDS011;51008;51.504;11.548;2023-09-07T14:29:50;8.17;;;5.13;;
64598;SDS011;51008;51.504;11.548;2023-09-07T14:34:51;9.13;;;5.20;;
64598;SDS011;51008;51.504;11.548;2023-09-07T14:39:51;13.43;;;4.95;;
64598;SDS011;51008;51.504;11.548;2023-09-07T14:44:52;9.77;;;5.00;;
64598;SDS011;51008;51.504;11.548;2023-09-07T14:49:53;11.82;;;5.60;;
64598;SDS011;51008;51.504;11.548;2023-09-07T14:54:54;17.20;;;5.00;;
64598;SDS011;51008;51.504;11.548;2023-09-07T14:59:55;11.23;;;5.20;;
64598;SDS011;51008;51.504;11.548;2023-09-07T15:04:56;10.50;;;5.13;;
64598;SDS011;51008;51.504;11.548;2023-09-07T15:09:57;11.95;;;5.25;;
64598;SDS011;51008;51.504;11.548;2023-09-07T15:14:58;5.97;;;4.35;;
64598;SDS011;51008;51.504;11.548;2023-09-07T15:19:59;9.77;;;4.60;;
64598;SDS011;51008;51.504;11.548;2023-09-07T15:25:00;9.00;;;5.05;;
64598;SDS011;51008;51.504;11.548;2023-09-07T15:30:01;9.25;;;4.70;;
64598;SDS011;51008;51.504;11.548;2023-09-07T15:35:02;9.93;;;5.20;;
64598;SDS011;51008;51.504;11.548;2023-09-07T15:40:04;10.90;;;5.30;;
64598;SDS011;51008;51.504;11.548;2023-09-07T15:45:05;22.80;;;7.20;;
64598;SDS011;51008;51.504;11.548;2023-09-07T15:50:07;14.63;;;5.57;;
64598;SDS011;51008;51.504;11.548;2023-09-07T15:55:08;11.90;;;4.88;;
64598;SDS011;51008;51.504;11.548;2023-09-07T16:00:09;10.88;;;5.22;;
64598;SDS011;51008;51.504;11.548;2023-09-07T16:05:13;12.85;;;5.40;;
64598;SDS011;51008;51.504;11.548;2023-09-07T16:10:14;32.80;;;9.65;;
64598;SDS011;51008;51.504;11.548;2023-09-07T16:15:15;15.43;;;6.57;;
64598;SDS011;51008;51.504;11.548;2023-09-07T16:20:16;9.55;;;4.80;;
64598;SDS011;51008;51.504;11.548;2023-09-07T16:25:17;12.40;;;5.18;;
64598;SDS011;51008;51.504;11.548;2023-09-07T16:30:18;10.25;;;4.32;;
64598;SDS011;51008;51.504;11.548;2023-09-07T16:35:19;8.20;;;4.60;;
64598;SDS011;51008;51.504;11.548;2023-09-07T16:40:20;10.35;;;4.85;;
64598;SDS011;51008;51.504;11.548;2023-09-07T16:45:21;10.77;;;4.80;;
64598;SDS011;51008;51.504;11.548;2023-09-07T16:50:22;8.55;;;4.75;;
64598;SDS011;51008;51.504;11.548;2023-09-07T16:55:23;13.23;;;5.18;;
64598;SDS011;51008;51.504;11.548;2023-09-07T17:00:24;9.95;;;4.60;;
64598;SDS011;51008;51.504;11.548;2023-09-07T17:05:25;8.48;;;4.60;;
64598;SDS011;51008;51.504;11.548;2023-09-07T17:10:26;11.07;;;5.10;;
64598;SDS011;51008;51.504;11.548;2023-09-07T17:15:28;11.93;;;4.75;;
64598;SDS011;51008;51.504;11.548;2023-09-07T17:20:29;9.80;;;4.70;;
64598;SDS011;51008;51.504;11.548;2023-09-07T17:25:31;15.38;;;5.20;;
64598;SDS011;51008;51.504;11.548;2023-09-07T17:30:34;10.48;;;4.88;;
64598;SDS011;51008;51.504;11.548;2023-09-07T17:35:35;10.70;;;4.80;;
64598;SDS011;51008;51.504;11.548;2023-09-07T17:40:36;11.73;;;4.68;;
64598;SDS011;51008;51.504;11.548;2023-09-07T17:45:37;10.85;;;4.90;;
64598;SDS011;51008;51.504;11.548;2023-09-07T17:50:38;31.38;;;5.60;;
64598;SDS011;51008;51.504;11.548;2023-09-07T17:55:39;22.92;;;6.22;;
64598;SDS011;51008;51.504;11.548;2023-09-07T18:00:40;11.30;;;4.85;;
64598;SDS011;51008;51.504;11.548;2023-09-07T18:05:41;10.30;;;5.32;;
64598;SDS011;51008;51.504;11.548;2023-09-07T18:10:42;8.57;;;5.07;;
64598;SDS011;51008;51.504;11.548;2023-09-07T18:15:44;9.02;;;5.45;;
64598;SDS011;51008;51.504;11.548;2023-09-07T18:20:46;12.52;;;5.35;;
64598;SDS011;51008;51.504;11.548;2023-09-07T18:25:46;7.55;;;4.57;;
64598;SDS011;51008;51.504;11.548;2023-09-07T18:30:47;9.10;;;4.45;;
64598;SDS011;51008;51.504;11.548;2023-09-07T18:35:58;8.95;;;4.85;;
64598;SDS011;51008;51.504;11.548;2023-09-07T18:41:00;11.13;;;5.18;;
64598;SDS011;51008;51.504;11.548;2023-09-07T18:46:02;9.10;;;4.70;;
64598;SDS011;51008;51.504;11.548;2023-09-07T18:51:07;8.65;;;4.78;;
64598;SDS011;51008;51.504;11.548;2023-09-07T18:56:08;13.48;;;5.78;;
64598;SDS011;51008;51.504;11.548;2023-09-07T19:01:13;8.43;;;5.28;;
64598;SDS011;51008;51.504;11.548;2023-09-07T19:06:15;13.70;;;6.25;;
64598;SDS011;51008;51.504;11.548;2023-09-07T19:11:16;9.32;;;5.45;;
64598;SDS011;51008;51.504;11.548;2023-09-07T19:16:17;12.95;;;6.00;;
64598;SDS011;51008;51.504;11.548;2023-09-07T19:21:18;11.05;;;6.28;;
64598;SDS011;51008;51.504;11.548;2023-09-07T19:31:34;9.60;;;5.68;;
64598;SDS011;51008;51.504;11.548;2023-09-07T19:36:36;9.80;;;5.30;;
64598;SDS011;51008;51.504;11.548;2023-09-07T19:41:38;9.73;;;5.43;;
64598;SDS011;51008;51.504;11.548;2023-09-07T19:46:39;10.20;;;5.35;;
64598;SDS011;51008;51.504;11.548;2023-09-07T19:51:40;8.85;;;5.60;;
64598;SDS011;51008;51.504;11.548;2023-09-07T19:56:41;15.80;;;9.80;;
64598;SDS011;51008;51.504;11.548;2023-09-07T20:01:51;17.55;;;10.15;;
64598;SDS011;51008;51.504;11.548;2023-09-07T20:06:52;13.85;;;8.00;;
64598;SDS011;51008;51.504;11.548;2023-09-07T20:11:54;10.95;;;7.45;;
64598;SDS011;51008;51.504;11.548;2023-09-07T20:16:55;12.98;;;9.10;;
64598;SDS011;51008;51.504;11.548;2023-09-07T20:21:56;13.13;;;7.75;;
64598;SDS011;51008;51.504;11.548;2023-09-07T20:26:57;11.80;;;7.85;;
64598;SDS011;51008;51.504;11.548;2023-09-07T20:31:58;16.20;;;7.07;;
64598;SDS011;51008;51.504;11.548;2023-09-07T20:36:59;11.52;;;7.50;;
64598;SDS011;51008;51.504;11.548;2023-09-07T20:42:00;14.13;;;8.32;;
64598;SDS011;51008;51.504;11.548;2023-09-07T20:47:01;13.55;;;7.00;;
64598;SDS011;51008;51.504;11.548;2023-09-07T20:52:02;18.25;;;9.63;;
64598;SDS011;51008;51.504;11.548;2023-09-07T20:57:07;18.23;;;9.32;;
64598;SDS011;51008;51.504;11.548;2023-09-07T21:02:08;10.32;;;7.25;;
64598;SDS011;51008;51.504;11.548;2023-09-07T21:07:09;12.13;;;7.30;;
64598;SDS011;51008;51.504;11.548;2023-09-07T21:12:10;10.95;;;7.07;;
64598;SDS011;51008;51.504;11.548;2023-09-07T21:17:11;11.63;;;6.32;;
64598;SDS011;51008;51.504;11.548;2023-09-07T21:22:12;14.82;;;7.13;;
64598;SDS011;51008;51.504;11.548;2023-09-07T21:27:13;10.90;;;6.80;;
64598;SDS011;51008;51.504;11.548;2023-09-07T21:32:14;10.63;;;6.25;;
64598;SDS011;51008;51.504;11.548;2023-09-07T21:37:15;12.38;;;6.15;;
64598;SDS011;51008;51.504;11.548;2023-09-07T21:42:16;14.85;;;6.93;;
64598;SDS011;51008;51.504;11.548;2023-09-07T21:47:17;13.25;;;6.85;;
64598;SDS011;51008;51.504;11.548;2023-09-07T21:52:18;11.50;;;6.80;;
64598;SDS011;51008;51.504;11.548;2023-09-07T21:57:19;10.75;;;7.00;;
64598;SDS011;51008;51.504;11.548;2023-09-07T22:02:21;10.27;;;6.85;;
64598;SDS011;51008;51.504;11.548;2023-09-07T22:07:22;9.80;;;6.90;;
64598;SDS011;51008;51.504;11.548;2023-09-07T22:12:23;12.38;;;7.15;;
64598;SDS011;51008;51.504;11.548;2023-09-07T22:17:24;12.85;;;7.00;;
64598;SDS011;51008;51.504;11.548;2023-09-07T22:22:25;13.85;;;7.93;;
64598;SDS011;51008;51.504;11.548;2023-09-07T22:27:26;11.88;;;6.55;;
64598;SDS011;51008;51.504;11.548;2023-09-07T22:32:27;12.10;;;6.88;;
64598;SDS011;51008;51.504;11.548;2023-09-07T22:37:28;12.88;;;7.28;;
64598;SDS011;51008;51.504;11.548;2023-09-07T22:42:29;10.68;;;7.45;;
64598;SDS011;51008;51.504;11.548;2023-09-07T22:47:30;12.95;;;7.35;;
64598;SDS011;51008;51.504;11.548;2023-09-07T22:52:31;13.48;;;7.40;;
64598;SDS011;51008;51.504;11.548;2023-09-07T22:57:35;11.35;;;6.68;;
64598;SDS011;51008;51.504;11.548;2023-09-07T23:02:36;13.95;;;6.90;;
64598;SDS011;51008;51.504;11.548;2023-09-07T23:07:38;13.90;;;7.53;;
64598;SDS011;51008;51.504;11.548;2023-09-07T23:12:39;17.48;;;7.53;;
64598;SDS011;51008;51.504;11.548;2023-09-07T23:17:40;10.55;;;6.78;;
64598;SDS011;51008;51.504;11.548;2023-09-07T23:22:41;12.75;;;7.38;;
64598;SDS011;51008;51.504;11.548;2023-09-07T23:27:42;14.30;;;7.88;;
64598;SDS011;51008;51.504;11.548;2023-09-07T23:32:43;13.25;;;7.45;;
64598;SDS011;51008;51.504;11.548;2023-09-07T23:37:44;15.38;;;7.63;;
64598;SDS011;51008;51.504;11.548;2023-09-07T23:42:45;11.70;;;7.32;;
64598;SDS011;51008;51.504;11.548;2023-09-07T23:47:46;11.40;;;7.32;;
64598;SDS011;51008;51.504;11.548;2023-09-07T23:52:47;13.05;;;7.75;;
64598;SDS011;51008;51.504;11.548;2023-09-07T23:57:48;14.20;;;7.95;;
